createdAt,value
2017-12-21T07:21:07.976Z,26.37
2017-12-21T07:23:39.872Z,25.10
2017-12-21T07:26:11.751Z,27.60
2017-12-21T07:28:44.403Z,24.10
2017-12-21T07:31:16.316Z,27.00
2017-12-21T07:33:48.213Z,26.97
2017-12-21T07:36:20.148Z,26.10
2017-12-21T07:38:52.015Z,26.73
2017-12-21T07:41:23.925Z,27.80
2017-12-21T07:43:56.824Z,24.47
2017-12-21T07:46:28.715Z,24.73
2017-12-21T07:49:00.588Z,26.77
2017-12-21T07:51:32.480Z,24.50
2017-12-21T07:54:05.117Z,27.03
2017-12-21T07:56:37.007Z,24.10
2017-12-21T07:59:10.488Z,26.63
2017-12-21T08:01:43.151Z,26.27
2017-12-21T08:04:15.011Z,28.10
2017-12-21T08:06:46.911Z,26.80
2017-12-21T08:09:18.792Z,27.47
2017-12-21T08:11:50.687Z,26.23
2017-12-21T08:14:22.571Z,27.07
2017-12-21T08:16:54.459Z,26.60
2017-12-21T08:19:27.095Z,25.50
2017-12-21T08:21:58.991Z,30.67
2017-12-21T08:24:30.873Z,29.80
2017-12-21T08:27:03.531Z,28.90
2017-12-21T08:29:36.172Z,28.63
2017-12-21T08:32:08.064Z,29.60
2017-12-21T08:34:39.964Z,28.10
2017-12-21T08:37:11.848Z,30.07
2017-12-21T08:39:43.719Z,25.50
2017-12-21T08:42:15.620Z,26.97
2017-12-21T08:44:48.252Z,26.20
2017-12-21T08:47:20.148Z,26.87
2017-12-21T08:49:52.025Z,25.17
2017-12-21T08:52:24.724Z,22.77
2017-12-21T08:54:57.343Z,21.10
2017-12-21T08:57:29.232Z,22.50
2017-12-21T09:00:01.867Z,26.93
2017-12-21T09:02:33.761Z,28.23
2017-12-21T09:05:05.641Z,27.60
2017-12-21T09:07:38.305Z,25.20
2017-12-21T09:10:10.968Z,21.53
2017-12-21T09:12:42.852Z,22.73
2017-12-21T09:15:15.484Z,20.27
2017-12-21T09:17:47.367Z,20.97
2017-12-21T09:20:19.240Z,21.07
2017-12-21T09:22:51.898Z,21.23
2017-12-21T09:25:23.772Z,20.93
2017-12-21T09:27:55.661Z,24.10
2017-12-21T09:30:27.536Z,19.33
2017-12-21T09:32:59.428Z,20.70
2017-12-21T09:35:31.303Z,19.57
2017-12-21T09:38:03.233Z,19.97
2017-12-21T09:40:35.831Z,17.53
2017-12-21T09:43:08.044Z,16.20
2017-12-21T09:45:39.916Z,16.67
2017-12-21T09:48:11.819Z,16.07
2017-12-21T09:50:43.707Z,19.70
2017-12-21T09:53:16.364Z,14.97
2017-12-21T09:55:48.240Z,16.17
2017-12-21T09:58:20.132Z,16.80
2017-12-21T10:00:52.003Z,14.83
2017-12-21T10:03:23.894Z,13.53
2017-12-21T10:05:55.772Z,14.53
2017-12-21T10:08:27.967Z,14.47
2017-12-21T10:10:59.843Z,14.77
2017-12-21T10:13:31.740Z,16.27
2017-12-21T10:16:03.623Z,17.07
2017-12-21T10:18:35.504Z,14.47
2017-12-21T10:21:08.151Z,14.20
2017-12-21T10:23:40.047Z,14.83
2017-12-21T10:26:11.916Z,14.73
2017-12-21T10:28:43.804Z,15.23
2017-12-21T10:31:15.693Z,14.33
2017-12-21T10:33:47.584Z,13.33
2017-12-21T10:36:20.224Z,14.80
2017-12-21T10:38:52.127Z,15.27
2017-12-21T10:41:24.760Z,14.57
2017-12-21T10:43:56.648Z,14.13
2017-12-21T10:46:29.288Z,13.23
2017-12-21T10:49:01.187Z,13.90
2017-12-21T10:51:33.819Z,13.77
2017-12-21T10:54:05.711Z,13.03
2017-12-21T10:56:37.595Z,13.13
2017-12-21T10:59:09.479Z,13.07
2017-12-21T11:01:41.352Z,13.47
2017-12-21T11:04:13.241Z,13.17
2017-12-21T11:06:45.112Z,12.43
2017-12-21T11:09:17.004Z,11.00
2017-12-21T11:11:48.871Z,13.20
2017-12-21T11:14:20.764Z,12.10
2017-12-21T11:16:52.640Z,14.40
2017-12-21T11:19:24.544Z,13.53
2017-12-21T11:21:56.420Z,12.37
2017-12-21T11:24:28.327Z,15.07
2017-12-21T11:27:00.200Z,13.07
2017-12-21T11:29:32.855Z,14.20
2017-12-21T11:32:04.817Z,12.33
2017-12-21T11:34:36.825Z,11.87
2017-12-21T11:37:09.458Z,13.70
2017-12-21T11:39:41.356Z,13.53
2017-12-21T11:42:14.000Z,13.67
2017-12-21T11:44:45.886Z,12.73
2017-12-21T11:47:18.531Z,12.47
2017-12-21T11:49:51.408Z,12.40
2017-12-21T11:52:23.283Z,12.13
2017-12-21T11:54:55.171Z,12.90
2017-12-21T11:57:27.804Z,12.80
2017-12-21T11:59:59.722Z,13.73
2017-12-21T12:02:32.364Z,12.03
2017-12-21T12:05:04.251Z,11.63
2017-12-21T12:07:36.892Z,13.00
2017-12-21T12:10:08.786Z,13.33
2017-12-21T12:12:41.430Z,13.57
2017-12-21T12:15:13.331Z,13.00
2017-12-21T12:17:45.968Z,13.70
2017-12-21T12:20:17.906Z,13.43
2017-12-21T12:22:50.512Z,13.73
2017-12-21T12:25:22.400Z,12.80
2017-12-21T12:27:55.039Z,12.23
2017-12-21T12:30:26.927Z,11.70
2017-12-21T12:32:59.123Z,13.20
2017-12-21T12:35:31.031Z,10.57
2017-12-21T12:38:02.908Z,11.60
2017-12-21T12:40:34.799Z,12.20
2017-12-21T12:43:06.676Z,10.90
2017-12-21T12:45:38.592Z,9.97
2017-12-21T12:48:10.457Z,10.27
2017-12-21T12:50:42.351Z,12.20
2017-12-21T12:53:14.244Z,10.97
2017-12-21T12:55:46.123Z,11.07
2017-12-21T12:58:18.000Z,11.00
2017-12-21T13:00:50.675Z,10.53
2017-12-21T13:03:22.540Z,10.83
2017-12-21T13:05:55.207Z,10.67
2017-12-21T13:08:27.124Z,10.67
2017-12-21T13:10:59.012Z,11.07
2017-12-21T13:13:30.921Z,10.57
2017-12-21T13:16:03.576Z,10.80
2017-12-21T13:18:36.216Z,10.97
2017-12-21T13:21:08.103Z,11.07
2017-12-21T13:23:40.200Z,12.93
2017-12-21T13:26:12.099Z,11.70
2017-12-21T13:28:43.963Z,11.93
2017-12-21T13:31:15.868Z,12.07
2017-12-21T13:33:48.507Z,13.17
2017-12-21T13:36:20.395Z,13.57
2017-12-21T13:38:52.268Z,13.10
2017-12-21T13:41:24.919Z,11.83
2017-12-21T13:43:56.792Z,12.37
2017-12-21T13:46:28.687Z,12.17
2017-12-21T13:49:00.555Z,12.27
2017-12-21T13:51:32.452Z,13.43
2017-12-21T13:54:04.327Z,14.02
2017-12-21T13:56:36.227Z,13.17
2017-12-21T13:59:08.096Z,13.37
2017-12-21T14:01:39.985Z,14.10
2017-12-21T14:04:11.856Z,14.57
2017-12-21T14:06:43.756Z,12.10
2017-12-21T14:09:16.478Z,14.43
2017-12-21T14:11:48.378Z,11.80
2017-12-21T14:14:21.021Z,13.03
2017-12-21T14:16:52.957Z,12.87
2017-12-21T14:19:24.820Z,13.70
2017-12-21T14:21:56.712Z,13.40
2017-12-21T14:24:28.587Z,13.83
2017-12-21T14:27:00.479Z,12.90
2017-12-21T14:29:32.356Z,12.27
2017-12-21T14:32:04.257Z,12.03
2017-12-21T14:34:36.127Z,11.90
2017-12-21T14:37:08.017Z,12.67
2017-12-21T14:39:39.888Z,11.77
2017-12-21T14:42:11.785Z,11.97
2017-12-21T14:44:43.669Z,13.97
2017-12-21T14:47:15.553Z,13.47
2017-12-21T14:49:48.312Z,12.90
2017-12-21T14:52:20.255Z,12.40
2017-12-21T14:54:52.136Z,12.63
2017-12-21T14:57:24.328Z,13.43
2017-12-21T14:59:56.202Z,13.03
2017-12-21T15:02:28.102Z,13.00
2017-12-21T15:04:59.967Z,12.00
2017-12-21T15:07:31.861Z,12.03
2017-12-21T15:10:03.818Z,14.93
2017-12-21T15:12:36.482Z,14.30
2017-12-21T15:15:08.352Z,15.80
2017-12-21T15:17:41.010Z,14.03
2017-12-21T15:20:12.892Z,16.17
2017-12-21T15:22:45.539Z,16.57
2017-12-21T15:25:17.411Z,17.37
2017-12-21T15:27:49.307Z,17.87
2017-12-21T15:30:21.180Z,17.63
2017-12-21T15:32:53.073Z,16.70
2017-12-21T15:35:24.944Z,16.43
2017-12-21T15:37:56.843Z,15.53
2017-12-21T15:40:29.480Z,15.87
2017-12-21T15:43:01.377Z,16.83
2017-12-21T15:45:34.013Z,16.00
2017-12-21T15:48:05.900Z,16.60
2017-12-21T15:50:38.539Z,17.10
2017-12-21T15:53:10.431Z,15.97
2017-12-21T15:55:42.322Z,16.53
2017-12-21T15:58:14.971Z,16.40
2017-12-21T16:00:46.848Z,15.93
2017-12-21T16:03:19.495Z,16.43
2017-12-21T16:05:51.376Z,18.17
2017-12-21T16:08:23.266Z,17.17
2017-12-21T16:10:55.160Z,18.20
2017-12-21T16:13:27.048Z,19.23
2017-12-21T16:15:58.920Z,19.13
2017-12-21T16:18:31.602Z,19.00
2017-12-21T16:21:04.236Z,18.63
2017-12-21T16:23:36.129Z,24.45
2017-12-21T16:26:08.052Z,20.17
2017-12-21T16:28:39.939Z,21.80
2017-12-21T16:31:11.823Z,19.70
2017-12-21T16:33:44.492Z,21.07
2017-12-21T16:36:16.579Z,19.80
2017-12-21T16:38:48.481Z,18.90
2017-12-21T16:41:20.347Z,17.77
2017-12-21T16:43:52.260Z,20.07
2017-12-21T16:46:24.920Z,20.93
2017-12-21T16:48:57.577Z,21.50
2017-12-21T16:51:29.449Z,20.50
2017-12-21T16:54:01.365Z,23.23
2017-12-21T16:56:33.251Z,22.57
2017-12-21T16:59:05.140Z,23.13
2017-12-21T17:01:37.012Z,23.97
2017-12-21T17:04:09.670Z,23.30
2017-12-21T17:06:41.545Z,23.73
2017-12-21T17:09:14.450Z,24.47
2017-12-21T17:11:46.339Z,23.17
2017-12-21T17:14:18.220Z,25.10
2017-12-21T17:16:50.108Z,22.73
2017-12-21T17:19:22.744Z,24.13
2017-12-21T17:21:54.632Z,21.33
2017-12-21T17:24:26.504Z,26.07
2017-12-21T17:26:59.160Z,24.73
2017-12-21T17:29:31.030Z,26.30
2017-12-21T17:32:02.912Z,24.23
2017-12-21T17:34:35.547Z,21.43
2017-12-21T17:37:07.471Z,24.93
2017-12-21T17:39:39.347Z,23.97
2017-12-21T17:42:11.235Z,23.73
2017-12-21T17:44:43.111Z,24.77
2017-12-21T17:47:14.999Z,24.63
2017-12-21T17:49:46.868Z,22.80
2017-12-21T17:52:19.023Z,23.27
2017-12-21T17:54:50.895Z,24.47
2017-12-21T17:57:22.836Z,25.37
2017-12-21T17:59:55.472Z,23.33
2017-12-21T18:02:27.411Z,24.57
2017-12-21T18:04:59.309Z,21.93
2017-12-21T18:07:31.196Z,24.40
2017-12-21T18:10:03.908Z,22.77
2017-12-21T18:12:35.823Z,19.60
2017-12-21T18:15:08.460Z,21.57
2017-12-21T18:17:40.395Z,22.03
2017-12-21T18:20:12.268Z,20.00
2017-12-21T18:22:44.205Z,20.50
2017-12-21T18:25:16.079Z,19.93
2017-12-21T18:27:47.983Z,18.67
2017-12-21T18:30:19.868Z,20.97
2017-12-21T18:32:52.560Z,19.67
2017-12-21T18:35:25.212Z,21.87
2017-12-21T18:37:57.131Z,19.47
2017-12-21T18:40:29.004Z,21.50
2017-12-21T18:43:00.935Z,18.80
2017-12-21T18:45:32.816Z,22.37
2017-12-21T18:48:04.981Z,24.50
2017-12-21T18:50:37.043Z,21.87
2017-12-21T18:53:08.939Z,23.83
2017-12-21T18:55:40.811Z,24.53
2017-12-21T18:58:12.697Z,19.70
2017-12-21T19:00:44.614Z,22.03
2017-12-21T19:03:16.543Z,21.67
2017-12-21T19:05:48.419Z,21.40
2017-12-21T19:08:20.327Z,21.33
2017-12-21T19:10:52.971Z,23.57
2017-12-21T19:13:24.888Z,25.40
2017-12-21T19:15:56.763Z,23.83
2017-12-21T19:18:28.663Z,19.47
2017-12-21T19:21:00.539Z,24.67
2017-12-21T19:23:33.242Z,23.27
2017-12-21T19:26:05.180Z,21.57
2017-12-21T19:28:37.111Z,22.40
2017-12-21T19:31:08.984Z,23.23
2017-12-21T19:33:40.923Z,23.03
2017-12-21T19:36:12.796Z,22.57
2017-12-21T19:38:44.717Z,23.43
2017-12-21T19:41:16.875Z,24.70
2017-12-21T19:43:48.796Z,22.63
2017-12-21T19:46:20.666Z,21.17
2017-12-21T19:48:53.389Z,23.77
2017-12-21T19:51:25.264Z,20.67
2017-12-21T19:53:57.191Z,21.53
2017-12-21T19:56:29.076Z,23.87
2017-12-21T19:59:00.959Z,21.47
2017-12-21T20:01:32.832Z,21.93
2017-12-21T20:04:04.764Z,21.03
2017-12-21T20:06:36.640Z,20.73
2017-12-21T20:09:08.527Z,22.57
2017-12-21T20:11:40.400Z,23.10
2017-12-21T20:14:13.088Z,22.53
2017-12-21T20:16:45.724Z,20.17
2017-12-21T20:19:17.635Z,22.27
2017-12-21T20:21:49.505Z,20.37
2017-12-21T20:24:21.427Z,20.10
2017-12-21T20:26:53.299Z,19.23
2017-12-21T20:29:25.954Z,19.60
2017-12-21T20:31:57.834Z,24.10
2017-12-21T20:34:30.523Z,25.57
2017-12-21T20:37:03.163Z,24.30
2017-12-21T20:39:35.072Z,20.70
2017-12-21T20:42:06.945Z,19.57
2017-12-21T20:44:38.864Z,21.17
2017-12-21T20:47:10.736Z,19.70
2017-12-21T20:49:43.408Z,18.83
2017-12-21T20:52:15.281Z,21.20
2017-12-21T20:54:47.972Z,18.77
2017-12-21T20:57:19.840Z,19.23
2017-12-21T20:59:51.749Z,21.10
2017-12-21T21:02:23.627Z,18.20
2017-12-21T21:04:55.551Z,20.67
2017-12-21T21:07:27.449Z,18.90
2017-12-21T21:09:59.639Z,25.10
2017-12-21T21:12:31.561Z,24.87
2017-12-21T21:15:03.444Z,25.13
2017-12-21T21:17:36.083Z,22.67
2017-12-21T21:20:16.750Z,20.33
2017-12-21T21:22:50.322Z,19.07
2017-12-21T21:25:22.248Z,18.27
2017-12-21T21:27:54.907Z,17.37
2017-12-21T21:30:26.850Z,15.53
2017-12-21T21:32:58.728Z,16.67
2017-12-21T21:35:30.654Z,16.37
2017-12-21T21:38:02.520Z,16.63
2017-12-21T21:40:34.435Z,16.57
2017-12-21T21:43:07.331Z,13.67
2017-12-21T21:45:39.252Z,16.60
2017-12-21T21:48:11.131Z,16.43
2017-12-21T21:50:43.044Z,14.97
2017-12-21T21:53:14.911Z,17.60
2017-12-21T21:55:46.866Z,15.27
2017-12-21T21:58:18.739Z,15.67
2017-12-21T22:00:50.671Z,14.53
2017-12-21T22:03:22.555Z,13.60
2017-12-21T22:05:54.488Z,16.73
2017-12-21T22:08:26.360Z,16.40
2017-12-21T22:10:58.293Z,15.30
2017-12-21T22:13:30.928Z,17.07
2017-12-21T22:16:02.848Z,17.07
2017-12-21T22:18:34.716Z,14.27
2017-12-21T22:21:06.631Z,16.30
2017-12-21T22:23:38.507Z,16.63
2017-12-21T22:26:10.426Z,15.43
2017-12-21T22:28:42.304Z,16.27
2017-12-21T22:31:14.207Z,15.40
2017-12-21T22:33:46.084Z,15.60
2017-12-21T22:36:18.003Z,14.60
2017-12-21T22:38:50.645Z,15.80
2017-12-21T22:41:22.548Z,12.63
2017-12-21T22:43:55.187Z,11.67
2017-12-21T22:46:27.139Z,13.07
2017-12-21T22:48:59.060Z,12.87
2017-12-21T22:51:31.741Z,15.77
2017-12-21T22:54:03.603Z,13.30
2017-12-21T22:56:35.511Z,13.07
2017-12-21T22:59:07.380Z,12.30
2017-12-21T23:01:39.302Z,10.90
2017-12-21T23:04:11.175Z,13.50
2017-12-21T23:06:43.079Z,14.20
2017-12-21T23:09:14.948Z,13.53
2017-12-21T23:11:47.599Z,14.70
2017-12-21T23:14:19.467Z,14.73
2017-12-21T23:16:51.359Z,13.13
2017-12-21T23:19:23.260Z,15.40
2017-12-21T23:21:55.183Z,15.03
2017-12-21T23:24:27.075Z,12.40
2017-12-21T23:26:58.987Z,11.23
2017-12-21T23:29:31.625Z,12.70
2017-12-21T23:32:03.532Z,11.60
2017-12-21T23:34:36.169Z,13.37
2017-12-21T23:37:08.091Z,13.13
2017-12-21T23:39:39.960Z,16.00
2017-12-21T23:42:11.851Z,12.47
2017-12-21T23:44:43.729Z,12.73
2017-12-21T23:47:15.660Z,13.17
2017-12-21T23:49:47.540Z,11.10
2017-12-21T23:52:19.440Z,10.43
2017-12-21T23:54:51.313Z,9.87
2017-12-21T23:57:23.244Z,12.67
2017-12-21T23:59:55.875Z,10.40
